sensor_id;sensor_type;location;lat;lon;timestamp;pressure;altitude;pressure_sealevel;temperature;humidity
31044;BME280;17710;52.520;13.352;2023-08-12T00:00:53;101632.94;;;24.55;55.16
31044;BME280;17710;52.520;13.352;2023-08-12T00:03:19;101639.59;;;24.51;56.01
31044;BME280;17710;52.520;13.352;2023-08-12T00:05:46;101638.47;;;24.31;57.47
31044;BME280;17710;52.520;13.352;2023-08-12T00:08:12;101643.19;;;24.05;59.19
31044;BME280;17710;52.520;13.352;2023-08-12T00:10:39;101640.50;;;24.16;58.99
31044;BME280;17710;52.520;13.352;2023-08-12T00:13:05;101643.88;;;24.20;58.55
31044;BME280;17710;52.520;13.352;2023-08-12T00:15:33;101638.66;;;24.06;59.10
31044;BME280;17710;52.520;13.352;2023-08-12T00:17:59;101635.09;;;24.16;57.46
31044;BME280;17710;52.520;13.352;2023-08-12T00:20:26;101643.50;;;24.25;56.57
31044;BME280;17710;52.520;13.352;2023-08-12T00:22:53;101643.50;;;24.36;56.20
31044;BME280;17710;52.520;13.352;2023-08-12T00:25:19;101640.06;;;24.34;56.07
31044;BME280;17710;52.520;13.352;2023-08-12T00:27:45;101634.03;;;24.30;56.43
31044;BME280;17710;52.520;13.352;2023-08-12T00:30:12;101643.75;;;24.33;56.14
31044;BME280;17710;52.520;13.352;2023-08-12T00:32:40;101629.38;;;24.32;55.69
31044;BME280;17710;52.520;13.352;2023-08-12T00:35:07;101632.09;;;24.43;55.31
31044;BME280;17710;52.520;13.352;2023-08-12T00:37:33;101631.41;;;24.17;56.11
31044;BME280;17710;52.520;13.352;2023-08-12T00:40:00;101622.38;;;24.30;56.09
31044;BME280;17710;52.520;13.352;2023-08-12T00:42:27;101629.75;;;24.39;55.57
31044;BME280;17710;52.520;13.352;2023-08-12T00:44:53;101629.84;;;24.15;56.32
31044;BME280;17710;52.520;13.352;2023-08-12T00:47:20;101609.13;;;24.38;55.32
31044;BME280;17710;52.520;13.352;2023-08-12T00:49:48;101615.38;;;24.49;54.63
31044;BME280;17710;52.520;13.352;2023-08-12T00:52:15;101609.13;;;24.27;55.83
31044;BME280;17710;52.520;13.352;2023-08-12T00:54:43;101606.41;;;24.49;55.13
31044;BME280;17710;52.520;13.352;2023-08-12T00:57:10;101599.06;;;24.40;54.67
31044;BME280;17710;52.520;13.352;2023-08-12T00:59:37;101596.59;;;24.37;54.69
31044;BME280;17710;52.520;13.352;2023-08-12T01:02:05;101589.94;;;24.18;55.33
31044;BME280;17710;52.520;13.352;2023-08-12T01:04:31;101586.28;;;24.31;54.96
31044;BME280;17710;52.520;13.352;2023-08-12T01:06:59;101583.47;;;24.21;55.19
31044;BME280;17710;52.520;13.352;2023-08-12T01:09:26;101583.47;;;24.21;55.13
31044;BME280;17710;52.520;13.352;2023-08-12T01:11:57;101579.84;;;24.09;55.52
31044;BME280;17710;52.520;13.352;2023-08-12T01:14:29;101578.00;;;23.99;56.12
31044;BME280;17710;52.520;13.352;2023-08-12T01:17:01;101571.38;;;23.92;56.16
31044;BME280;17710;52.520;13.352;2023-08-12T01:19:34;101571.63;;;23.89;55.77
31044;BME280;17710;52.520;13.352;2023-08-12T01:22:03;101578.75;;;24.01;55.71
31044;BME280;17710;52.520;13.352;2023-08-12T01:24:35;101582.69;;;24.08;55.59
31044;BME280;17710;52.520;13.352;2023-08-12T01:27:02;101586.13;;;24.10;55.51
31044;BME280;17710;52.520;13.352;2023-08-12T01:29:28;101588.31;;;24.05;55.49
31044;BME280;17710;52.520;13.352;2023-08-12T01:31:58;101577.41;;;23.95;55.56
31044;BME280;17710;52.520;13.352;2023-08-12T01:34:32;101579.84;;;23.87;56.01
31044;BME280;17710;52.520;13.352;2023-08-12T01:37:03;101570.41;;;23.93;55.61
31044;BME280;17710;52.520;13.352;2023-08-12T01:39:31;101558.47;;;23.84;56.15
31044;BME280;17710;52.520;13.352;2023-08-12T01:42:00;101561.44;;;23.81;55.98
31044;BME280;17710;52.520;13.352;2023-08-12T01:44:27;101567.59;;;23.94;55.63
31044;BME280;17710;52.520;13.352;2023-08-12T01:46:55;101561.16;;;23.73;55.86
31044;BME280;17710;52.520;13.352;2023-08-12T01:49:21;101562.63;;;23.77;56.43
31044;BME280;17710;52.520;13.352;2023-08-12T01:51:48;101559.81;;;23.78;56.03
31044;BME280;17710;52.520;13.352;2023-08-12T01:54:14;101556.03;;;24.03;55.30
31044;BME280;17710;52.520;13.352;2023-08-12T01:56:41;101559.50;;;23.94;55.41
31044;BME280;17710;52.520;13.352;2023-08-12T01:59:08;101555.16;;;23.69;56.14
31044;BME280;17710;52.520;13.352;2023-08-12T02:01:35;101547.56;;;23.97;55.50
31044;BME280;17710;52.520;13.352;2023-08-12T02:04:01;101543.28;;;24.05;55.00
31044;BME280;17710;52.520;13.352;2023-08-12T02:06:28;101541.06;;;23.88;55.83
31044;BME280;17710;52.520;13.352;2023-08-12T02:08:54;101538.59;;;23.96;55.56
31044;BME280;17710;52.520;13.352;2023-08-12T02:11:20;101531.00;;;23.90;55.55
31044;BME280;17710;52.520;13.352;2023-08-12T02:13:47;101533.25;;;24.07;55.37
31044;BME280;17710;52.520;13.352;2023-08-12T02:16:15;101524.66;;;24.02;55.68
31044;BME280;17710;52.520;13.352;2023-08-12T02:18:41;101529.41;;;23.99;55.59
31044;BME280;17710;52.520;13.352;2023-08-12T02:21:08;101528.44;;;24.11;55.18
31044;BME280;17710;52.520;13.352;2023-08-12T02:23:34;101530.88;;;24.03;55.31
31044;BME280;17710;52.520;13.352;2023-08-12T02:26:01;101530.44;;;24.09;54.96
31044;BME280;17710;52.520;13.352;2023-08-12T02:28:28;101525.13;;;24.07;54.87
31044;BME280;17710;52.520;13.352;2023-08-12T02:30:54;101526.38;;;24.14;54.53
31044;BME280;17710;52.520;13.352;2023-08-12T02:33:22;101513.84;;;24.02;54.97
31044;BME280;17710;52.520;13.352;2023-08-12T02:35:52;101512.84;;;23.81;56.07
31044;BME280;17710;52.520;13.352;2023-08-12T02:38:19;101503.66;;;24.06;55.25
31044;BME280;17710;52.520;13.352;2023-08-12T02:40:47;101512.03;;;24.25;54.77
31044;BME280;17710;52.520;13.352;2023-08-12T02:43:14;101510.66;;;24.31;54.39
31044;BME280;17710;52.520;13.352;2023-08-12T02:45:40;101511.16;;;24.25;54.32
31044;BME280;17710;52.520;13.352;2023-08-12T02:48:08;101504.75;;;24.03;55.10
31044;BME280;17710;52.520;13.352;2023-08-12T02:50:36;101509.56;;;24.00;55.26
31044;BME280;17710;52.520;13.352;2023-08-12T02:53:03;101502.06;;;24.14;55.01
31044;BME280;17710;52.520;13.352;2023-08-12T02:55:29;101498.63;;;24.01;55.28
31044;BME280;17710;52.520;13.352;2023-08-12T02:57:57;101491.97;;;24.16;55.06
31044;BME280;17710;52.520;13.352;2023-08-12T03:00:23;101501.44;;;23.89;55.63
31044;BME280;17710;52.520;13.352;2023-08-12T03:02:50;101494.19;;;24.11;55.01
31044;BME280;17710;52.520;13.352;2023-08-12T03:05:16;101502.91;;;23.93;54.92
31044;BME280;17710;52.520;13.352;2023-08-12T03:07:44;101489.69;;;24.01;55.44
31044;BME280;17710;52.520;13.352;2023-08-12T03:10:11;101491.41;;;24.02;55.32
31044;BME280;17710;52.520;13.352;2023-08-12T03:12:37;101490.16;;;24.06;55.18
31044;BME280;17710;52.520;13.352;2023-08-12T03:15:06;101487.81;;;23.79;55.94
31044;BME280;17710;52.520;13.352;2023-08-12T03:17:33;101489.78;;;23.88;55.46
31044;BME280;17710;52.520;13.352;2023-08-12T03:19:59;101482.81;;;24.08;55.18
31044;BME280;17710;52.520;13.352;2023-08-12T03:22:27;101489.19;;;24.07;54.96
31044;BME280;17710;52.520;13.352;2023-08-12T03:24:54;101484.38;;;23.77;55.93
31044;BME280;17710;52.520;13.352;2023-08-12T03:27:21;101483.28;;;23.68;56.45
31044;BME280;17710;52.520;13.352;2023-08-12T03:29:47;101474.44;;;23.55;56.36
31044;BME280;17710;52.520;13.352;2023-08-12T03:32:14;101476.03;;;23.80;56.10
31044;BME280;17710;52.520;13.352;2023-08-12T03:34:40;101466.72;;;23.84;55.59
31044;BME280;17710;52.520;13.352;2023-08-12T03:37:06;101461.44;;;23.94;55.73
31044;BME280;17710;52.520;13.352;2023-08-12T03:39:33;101460.09;;;23.66;56.43
31044;BME280;17710;52.520;13.352;2023-08-12T03:42:00;101463.53;;;23.90;55.45
31044;BME280;17710;52.520;13.352;2023-08-12T03:44:27;101471.75;;;23.77;55.82
31044;BME280;17710;52.520;13.352;2023-08-12T03:46:53;101473.94;;;23.72;56.04
31044;BME280;17710;52.520;13.352;2023-08-12T03:49:20;101472.50;;;23.68;55.92
31044;BME280;17710;52.520;13.352;2023-08-12T03:51:46;101470.63;;;23.58;56.27
31044;BME280;17710;52.520;13.352;2023-08-12T03:54:12;101460.09;;;23.55;55.98
31044;BME280;17710;52.520;13.352;2023-08-12T03:56:39;101459.03;;;23.44;56.27
31044;BME280;17710;52.520;13.352;2023-08-12T03:59:06;101452.47;;;23.60;55.83
31044;BME280;17710;52.520;13.352;2023-08-12T04:01:33;101449.06;;;23.69;55.66
31044;BME280;17710;52.520;13.352;2023-08-12T04:03:59;101447.22;;;23.80;55.56
31044;BME280;17710;52.520;13.352;2023-08-12T04:06:26;101444.16;;;23.85;55.18
31044;BME280;17710;52.520;13.352;2023-08-12T04:11:18;101453.44;;;23.70;55.22
31044;BME280;17710;52.520;13.352;2023-08-12T04:13:44;101449.53;;;23.52;55.77
31044;BME280;17710;52.520;13.352;2023-08-12T04:16:12;101441.31;;;23.64;55.20
31044;BME280;17710;52.520;13.352;2023-08-12T04:18:38;101445.34;;;23.70;55.02
31044;BME280;17710;52.520;13.352;2023-08-12T04:21:05;101437.63;;;23.65;54.94
31044;BME280;17710;52.520;13.352;2023-08-12T04:23:31;101432.53;;;23.38;55.52
31044;BME280;17710;52.520;13.352;2023-08-12T04:25:58;101432.53;;;23.38;55.74
31044;BME280;17710;52.520;13.352;2023-08-12T04:28:24;101434.34;;;23.73;54.33
31044;BME280;17710;52.520;13.352;2023-08-12T04:30:50;101427.06;;;23.51;55.20
31044;BME280;17710;52.520;13.352;2023-08-12T04:33:19;101428.09;;;23.61;54.95
31044;BME280;17710;52.520;13.352;2023-08-12T04:35:46;101436.69;;;23.89;54.08
31044;BME280;17710;52.520;13.352;2023-08-12T04:38:12;101440.97;;;23.69;54.42
31044;BME280;17710;52.520;13.352;2023-08-12T04:40:39;101440.22;;;24.00;53.79
31044;BME280;17710;52.520;13.352;2023-08-12T04:43:06;101445.88;;;23.86;54.19
31044;BME280;17710;52.520;13.352;2023-08-12T04:45:33;101446.09;;;24.05;53.97
31044;BME280;17710;52.520;13.352;2023-08-12T04:47:59;101443.50;;;24.37;53.08
31044;BME280;17710;52.520;13.352;2023-08-12T04:50:30;101440.09;;;24.13;53.19
31044;BME280;17710;52.520;13.352;2023-08-12T04:52:59;101438.03;;;23.94;53.66
31044;BME280;17710;52.520;13.352;2023-08-12T04:55:25;101442.53;;;24.05;53.35
31044;BME280;17710;52.520;13.352;2023-08-12T04:57:52;101440.97;;;24.02;53.54
31044;BME280;17710;52.520;13.352;2023-08-12T05:00:19;101445.59;;;24.22;52.89
31044;BME280;17710;52.520;13.352;2023-08-12T05:02:46;101435.53;;;24.36;52.17
31044;BME280;17710;52.520;13.352;2023-08-12T05:05:13;101433.06;;;24.44;51.88
31044;BME280;17710;52.520;13.352;2023-08-12T05:07:40;101429.78;;;24.72;51.40
31044;BME280;17710;52.520;13.352;2023-08-12T05:10:07;101433.97;;;24.65;51.42
31044;BME280;17710;52.520;13.352;2023-08-12T05:12:34;101422.06;;;24.99;50.93
31044;BME280;17710;52.520;13.352;2023-08-12T05:15:00;101429.78;;;25.25;49.64
31044;BME280;17710;52.520;13.352;2023-08-12T05:17:27;101422.97;;;25.10;49.86
31044;BME280;17710;52.520;13.352;2023-08-12T05:19:54;101412.69;;;25.24;49.96
31044;BME280;17710;52.520;13.352;2023-08-12T05:22:20;101422.66;;;25.24;49.71
31044;BME280;17710;52.520;13.352;2023-08-12T05:24:48;101418.28;;;25.53;48.37
31044;BME280;17710;52.520;13.352;2023-08-12T05:27:14;101415.84;;;25.71;48.43
31044;BME280;17710;52.520;13.352;2023-08-12T05:29:41;101420.25;;;25.51;48.55
31044;BME280;17710;52.520;13.352;2023-08-12T05:32:07;101417.38;;;25.64;47.98
31044;BME280;17710;52.520;13.352;2023-08-12T05:34:34;101406.25;;;25.97;47.80
31044;BME280;17710;52.520;13.352;2023-08-12T05:37:00;101408.78;;;25.89;47.35
31044;BME280;17710;52.520;13.352;2023-08-12T05:39:26;101415.53;;;26.14;47.02
31044;BME280;17710;52.520;13.352;2023-08-12T05:41:54;101418.88;;;26.27;47.00
31044;BME280;17710;52.520;13.352;2023-08-12T05:44:20;101424.41;;;26.16;47.05
31044;BME280;17710;52.520;13.352;2023-08-12T05:46:47;101415.72;;;26.22;46.63
31044;BME280;17710;52.520;13.352;2023-08-12T05:49:13;101411.06;;;26.34;46.55
31044;BME280;17710;52.520;13.352;2023-08-12T05:51:39;101404.88;;;26.22;46.63
31044;BME280;17710;52.520;13.352;2023-08-12T05:54:06;101401.69;;;25.98;47.43
31044;BME280;17710;52.520;13.352;2023-08-12T05:56:33;101407.13;;;26.07;47.52
31044;BME280;17710;52.520;13.352;2023-08-12T05:59:00;101408.25;;;26.05;48.07
31044;BME280;17710;52.520;13.352;2023-08-12T06:01:27;101408.56;;;26.11;47.88
31044;BME280;17710;52.520;13.352;2023-08-12T06:03:53;101411.09;;;26.03;47.71
31044;BME280;17710;52.520;13.352;2023-08-12T06:06:19;101406.56;;;26.13;47.57
31044;BME280;17710;52.520;13.352;2023-08-12T06:08:46;101422.81;;;26.13;47.59
31044;BME280;17710;52.520;13.352;2023-08-12T06:11:13;101422.91;;;26.52;46.97
31044;BME280;17710;52.520;13.352;2023-08-12T06:13:39;101413.50;;;26.46;47.01
31044;BME280;17710;52.520;13.352;2023-08-12T06:16:07;101417.06;;;26.47;47.03
31044;BME280;17710;52.520;13.352;2023-08-12T06:18:33;101424.03;;;26.40;47.21
31044;BME280;17710;52.520;13.352;2023-08-12T06:21:00;101420.47;;;26.39;47.37
31044;BME280;17710;52.520;13.352;2023-08-12T06:23:27;101415.91;;;26.30;47.68
31044;BME280;17710;52.520;13.352;2023-08-12T06:25:54;101408.53;;;26.71;46.67
31044;BME280;17710;52.520;13.352;2023-08-12T06:28:21;101412.94;;;26.52;47.04
31044;BME280;17710;52.520;13.352;2023-08-12T06:30:47;101410.97;;;26.83;46.85
31044;BME280;17710;52.520;13.352;2023-08-12T06:33:15;101415.53;;;26.92;46.97
31044;BME280;17710;52.520;13.352;2023-08-12T06:35:41;101411.53;;;26.87;47.16
31044;BME280;17710;52.520;13.352;2023-08-12T06:38:08;101406.69;;;27.00;46.91
31044;BME280;17710;52.520;13.352;2023-08-12T06:40:35;101402.91;;;27.40;45.88
31044;BME280;17710;52.520;13.352;2023-08-12T06:43:01;101409.25;;;27.02;46.53
31044;BME280;17710;52.520;13.352;2023-08-12T06:45:28;101403.09;;;27.19;46.75
31044;BME280;17710;52.520;13.352;2023-08-12T06:47:54;101413.38;;;27.15;46.75
31044;BME280;17710;52.520;13.352;2023-08-12T06:50:22;101409.28;;;27.58;46.03
31044;BME280;17710;52.520;13.352;2023-08-12T06:52:48;101402.72;;;27.60;45.12
31044;BME280;17710;52.520;13.352;2023-08-12T06:55:15;101407.16;;;27.61;45.36
31044;BME280;17710;52.520;13.352;2023-08-12T06:57:41;101399.75;;;27.54;46.02
31044;BME280;17710;52.520;13.352;2023-08-12T07:00:08;101400.19;;;27.86;44.76
31044;BME280;17710;52.520;13.352;2023-08-12T07:02:35;101394.31;;;27.54;45.51
31044;BME280;17710;52.520;13.352;2023-08-12T07:05:02;101397.56;;;27.67;45.10
31044;BME280;17710;52.520;13.352;2023-08-12T07:07:29;101389.81;;;27.99;44.72
31044;BME280;17710;52.520;13.352;2023-08-12T07:09:56;101384.25;;;28.28;43.73
31044;BME280;17710;52.520;13.352;2023-08-12T07:12:22;101387.47;;;28.14;44.00
31044;BME280;17710;52.520;13.352;2023-08-12T07:14:48;101387.34;;;28.06;43.87
31044;BME280;17710;52.520;13.352;2023-08-12T07:17:15;101383.59;;;27.62;44.11
31044;BME280;17710;52.520;13.352;2023-08-12T07:19:42;101385.03;;;27.47;44.85
31044;BME280;17710;52.520;13.352;2023-08-12T07:22:08;101382.16;;;27.85;44.61
31044;BME280;17710;52.520;13.352;2023-08-12T07:24:36;101387.25;;;28.43;43.16
31044;BME280;17710;52.520;13.352;2023-08-12T07:27:02;101388.53;;;28.66;42.79
31044;BME280;17710;52.520;13.352;2023-08-12T07:29:29;101384.97;;;28.83;42.41
31044;BME280;17710;52.520;13.352;2023-08-12T07:31:55;101378.66;;;29.01;41.79
31044;BME280;17710;52.520;13.352;2023-08-12T07:34:22;101378.88;;;28.89;42.26
31044;BME280;17710;52.520;13.352;2023-08-12T07:36:48;101385.63;;;29.03;42.27
31044;BME280;17710;52.520;13.352;2023-08-12T07:39:15;101393.28;;;29.00;42.63
31044;BME280;17710;52.520;13.352;2023-08-12T07:41:42;101383.47;;;29.07;42.22
31044;BME280;17710;52.520;13.352;2023-08-12T07:44:09;101377.94;;;28.63;43.50
31044;BME280;17710;52.520;13.352;2023-08-12T07:46:35;101378.25;;;28.96;43.11
31044;BME280;17710;52.520;13.352;2023-08-12T07:49:02;101373.59;;;29.31;42.12
31044;BME280;17710;52.520;13.352;2023-08-12T07:51:28;101381.38;;;29.26;41.74
31044;BME280;17710;52.520;13.352;2023-08-12T07:53:55;101390.56;;;29.00;42.68
31044;BME280;17710;52.520;13.352;2023-08-12T07:56:22;101387.50;;;29.03;43.20
31044;BME280;17710;52.520;13.352;2023-08-12T07:58:50;101375.72;;;28.94;42.94
31044;BME280;17710;52.520;13.352;2023-08-12T08:01:16;101381.88;;;28.78;42.97
31044;BME280;17710;52.520;13.352;2023-08-12T08:03:43;101373.94;;;28.67;43.73
31044;BME280;17710;52.520;13.352;2023-08-12T08:06:09;101377.75;;;28.74;42.98
31044;BME280;17710;52.520;13.352;2023-08-12T08:08:36;101378.25;;;28.96;43.10
31044;BME280;17710;52.520;13.352;2023-08-12T08:11:03;101374.00;;;28.75;43.33
31044;BME280;17710;52.520;13.352;2023-08-12T08:13:29;101370.97;;;28.61;44.19
31044;BME280;17710;52.520;13.352;2023-08-12T08:15:57;101378.38;;;28.68;43.66
31044;BME280;17710;52.520;13.352;2023-08-12T08:18:23;101376.63;;;28.32;45.01
31044;BME280;17710;52.520;13.352;2023-08-12T08:20:50;101376.09;;;28.28;45.04
31044;BME280;17710;52.520;13.352;2023-08-12T08:23:16;101372.75;;;28.52;44.66
31044;BME280;17710;52.520;13.352;2023-08-12T08:25:43;101370.56;;;28.38;45.37
31044;BME280;17710;52.520;13.352;2023-08-12T08:28:09;101370.34;;;28.49;45.13
31044;BME280;17710;52.520;13.352;2023-08-12T08:30:36;101368.19;;;28.52;44.92
31044;BME280;17710;52.520;13.352;2023-08-12T08:33:04;101373.66;;;28.25;46.08
31044;BME280;17710;52.520;13.352;2023-08-12T08:35:32;101376.00;;;28.38;45.89
31044;BME280;17710;52.520;13.352;2023-08-12T08:37:59;101377.47;;;28.14;46.56
31044;BME280;17710;52.520;13.352;2023-08-12T08:40:26;101377.63;;;28.31;46.53
31044;BME280;17710;52.520;13.352;2023-08-12T08:42:52;101378.25;;;28.42;46.44
31044;BME280;17710;52.520;13.352;2023-08-12T08:45:21;101390.31;;;28.40;46.61
31044;BME280;17710;52.520;13.352;2023-08-12T08:47:48;101381.22;;;28.49;46.13
31044;BME280;17710;52.520;13.352;2023-08-12T08:50:17;101382.25;;;28.48;46.59
31044;BME280;17710;52.520;13.352;2023-08-12T08:52:44;101381.44;;;28.55;46.39
31044;BME280;17710;52.520;13.352;2023-08-12T08:55:11;101378.81;;;28.46;46.71
31044;BME280;17710;52.520;13.352;2023-08-12T08:57:38;101368.16;;;28.70;47.36
31044;BME280;17710;52.520;13.352;2023-08-12T09:00:05;101361.56;;;28.90;47.76
31044;BME280;17710;52.520;13.352;2023-08-12T09:02:33;101361.34;;;28.84;48.15
31044;BME280;17710;52.520;13.352;2023-08-12T09:05:01;101356.19;;;28.63;49.09
31044;BME280;17710;52.520;13.352;2023-08-12T09:07:29;101358.63;;;28.66;48.10
31044;BME280;17710;52.520;13.352;2023-08-12T09:09:58;101353.78;;;28.96;48.10
31044;BME280;17710;52.520;13.352;2023-08-12T09:12:27;101340.38;;;29.02;48.37
31044;BME280;17710;52.520;13.352;2023-08-12T09:14:53;101341.66;;;29.08;49.40
31044;BME280;17710;52.520;13.352;2023-08-12T09:17:19;101356.94;;;29.35;47.03
31044;BME280;17710;52.520;13.352;2023-08-12T09:19:46;101363.22;;;29.09;47.29
31044;BME280;17710;52.520;13.352;2023-08-12T09:22:15;101367.13;;;29.07;47.13
31044;BME280;17710;52.520;13.352;2023-08-12T09:24:43;101366.38;;;29.22;46.35
31044;BME280;17710;52.520;13.352;2023-08-12T09:27:09;101365.50;;;29.40;46.19
31044;BME280;17710;52.520;13.352;2023-08-12T09:29:36;101373.19;;;29.44;45.24
31044;BME280;17710;52.520;13.352;2023-08-12T09:32:06;101350.41;;;29.45;45.31
31044;BME280;17710;52.520;13.352;2023-08-12T09:34:35;101352.78;;;29.48;44.95
31044;BME280;17710;52.520;13.352;2023-08-12T09:37:02;101352.22;;;29.70;45.11
31044;BME280;17710;52.520;13.352;2023-08-12T09:39:29;101343.44;;;29.51;45.77
31044;BME280;17710;52.520;13.352;2023-08-12T09:41:57;101345.88;;;29.62;44.89
31044;BME280;17710;52.520;13.352;2023-08-12T09:44:25;101346.06;;;29.68;45.28
31044;BME280;17710;52.520;13.352;2023-08-12T09:46:56;101351.63;;;29.51;45.45
31044;BME280;17710;52.520;13.352;2023-08-12T09:49:22;101345.19;;;29.60;44.82
31044;BME280;17710;52.520;13.352;2023-08-12T09:51:50;101351.34;;;30.04;44.51
31044;BME280;17710;52.520;13.352;2023-08-12T09:54:17;101343.50;;;29.93;44.71
31044;BME280;17710;52.520;13.352;2023-08-12T09:56:47;101341.69;;;30.18;44.00
31044;BME280;17710;52.520;13.352;2023-08-12T09:59:18;101348.47;;;30.22;43.99
31044;BME280;17710;52.520;13.352;2023-08-12T10:01:49;101343.38;;;30.19;44.61
31044;BME280;17710;52.520;13.352;2023-08-12T10:04:17;101348.16;;;30.25;43.75
31044;BME280;17710;52.520;13.352;2023-08-12T10:06:44;101340.09;;;30.07;44.64
31044;BME280;17710;52.520;13.352;2023-08-12T10:09:10;101342.81;;;30.07;44.55
31044;BME280;17710;52.520;13.352;2023-08-12T10:11:37;101345.56;;;29.99;44.60
31044;BME280;17710;52.520;13.352;2023-08-12T10:14:04;101335.97;;;29.95;45.46
31044;BME280;17710;52.520;13.352;2023-08-12T10:16:32;101328.41;;;29.81;45.39
31044;BME280;17710;52.520;13.352;2023-08-12T10:19:00;101317.25;;;29.92;45.38
31044;BME280;17710;52.520;13.352;2023-08-12T10:21:28;101309.81;;;30.10;45.86
31044;BME280;17710;52.520;13.352;2023-08-12T10:23:57;101306.25;;;30.26;45.46
31044;BME280;17710;52.520;13.352;2023-08-12T10:26:24;101307.47;;;30.31;44.13
31044;BME280;17710;52.520;13.352;2023-08-12T10:28:50;101306.09;;;30.43;44.01
31044;BME280;17710;52.520;13.352;2023-08-12T10:31:16;101301.19;;;30.63;43.46
31044;BME280;17710;52.520;13.352;2023-08-12T10:33:46;101295.72;;;30.63;44.10
31044;BME280;17710;52.520;13.352;2023-08-12T10:36:14;101295.88;;;30.54;44.59
31044;BME280;17710;52.520;13.352;2023-08-12T10:38:43;101286.31;;;30.90;43.84
31044;BME280;17710;52.520;13.352;2023-08-12T10:41:17;101284.25;;;31.16;43.05
31044;BME280;17710;52.520;13.352;2023-08-12T10:43:51;101288.34;;;31.04;43.85
31044;BME280;17710;52.520;13.352;2023-08-12T10:46:22;101296.00;;;31.01;43.60
31044;BME280;17710;52.520;13.352;2023-08-12T10:49:03;101296.63;;;31.35;42.44
31044;BME280;17710;52.520;13.352;2023-08-12T10:51:40;101297.13;;;31.39;42.56
31044;BME280;17710;52.520;13.352;2023-08-12T10:54:13;101304.66;;;31.37;42.95
31044;BME280;17710;52.520;13.352;2023-08-12T10:57:08;101313.56;;;31.22;43.71
31044;BME280;17710;52.520;13.352;2023-08-12T10:59:50;101301.97;;;31.20;43.79
31044;BME280;17710;52.520;13.352;2023-08-12T11:02:17;101301.94;;;31.28;43.39
31044;BME280;17710;52.520;13.352;2023-08-12T11:04:48;101294.97;;;31.18;44.17
31044;BME280;17710;52.520;13.352;2023-08-12T11:07:15;101291.41;;;31.64;42.96
31044;BME280;17710;52.520;13.352;2023-08-12T11:09:42;101291.22;;;31.58;43.21
31044;BME280;17710;52.520;13.352;2023-08-12T11:12:09;101290.00;;;31.77;43.12
31044;BME280;17710;52.520;13.352;2023-08-12T11:14:47;101289.06;;;31.45;42.94
31044;BME280;17710;52.520;13.352;2023-08-12T11:17:14;101290.94;;;31.61;42.89
31044;BME280;17710;52.520;13.352;2023-08-12T11:19:41;101288.75;;;31.87;42.17
31044;BME280;17710;52.520;13.352;2023-08-12T11:22:09;101290.47;;;31.41;42.87
31044;BME280;17710;52.520;13.352;2023-08-12T11:24:40;101289.34;;;31.19;43.55
31044;BME280;17710;52.520;13.352;2023-08-12T11:27:09;101280.97;;;31.21;43.44
31044;BME280;17710;52.520;13.352;2023-08-12T11:29:36;101295.50;;;31.05;43.28
31044;BME280;17710;52.520;13.352;2023-08-12T11:32:03;101292.63;;;30.91;43.92
31044;BME280;17710;52.520;13.352;2023-08-12T11:34:31;101287.88;;;30.76;45.17
31044;BME280;17710;52.520;13.352;2023-08-12T11:36:58;101294.50;;;30.90;44.54
31044;BME280;17710;52.520;13.352;2023-08-12T11:39:26;101290.78;;;30.67;44.41
31044;BME280;17710;52.520;13.352;2023-08-12T11:41:52;101282.41;;;30.60;44.95
31044;BME280;17710;52.520;13.352;2023-08-12T11:44:21;101304.38;;;30.18;46.09
31044;BME280;17710;52.520;13.352;2023-08-12T11:46:47;101302.50;;;30.19;46.51
31044;BME280;17710;52.520;13.352;2023-08-12T11:49:14;101309.44;;;29.97;46.71
31044;BME280;17710;52.520;13.352;2023-08-12T11:51:40;101308.53;;;29.88;46.73
31044;BME280;17710;52.520;13.352;2023-08-12T11:54:09;101303.31;;;30.03;46.56
31044;BME280;17710;52.520;13.352;2023-08-12T11:56:37;101299.44;;;30.30;46.21
31044;BME280;17710;52.520;13.352;2023-08-12T11:59:03;101292.81;;;30.32;45.91
31044;BME280;17710;52.520;13.352;2023-08-12T12:01:31;101302.66;;;30.33;46.31
31044;BME280;17710;52.520;13.352;2023-08-12T12:03:59;101313.94;;;30.30;46.63
31044;BME280;17710;52.520;13.352;2023-08-12T12:06:31;101310.47;;;30.04;46.54
31044;BME280;17710;52.520;13.352;2023-08-12T12:09:00;101313.72;;;29.99;47.30
31044;BME280;17710;52.520;13.352;2023-08-12T12:11:29;101300.66;;;30.43;47.24
31044;BME280;17710;52.520;13.352;2023-08-12T12:14:00;101305.41;;;30.25;47.77
31044;BME280;17710;52.520;13.352;2023-08-12T12:16:37;101310.19;;;30.47;47.12
31044;BME280;17710;52.520;13.352;2023-08-12T12:19:03;101301.69;;;30.67;46.88
31044;BME280;17710;52.520;13.352;2023-08-12T12:21:38;101309.88;;;30.51;47.70
31044;BME280;17710;52.520;13.352;2023-08-12T12:24:05;101301.19;;;30.55;47.64
31044;BME280;17710;52.520;13.352;2023-08-12T12:26:32;101302.00;;;30.31;47.54
31044;BME280;17710;52.520;13.352;2023-08-12T12:29:00;101293.78;;;30.07;48.08
31044;BME280;17710;52.520;13.352;2023-08-12T12:31:26;101278.09;;;30.01;48.63
31044;BME280;17710;52.520;13.352;2023-08-12T12:33:53;101239.44;;;29.97;48.14
31044;BME280;17710;52.520;13.352;2023-08-12T12:36:19;101229.41;;;30.06;48.46
31044;BME280;17710;52.520;13.352;2023-08-12T12:38:45;101230.75;;;30.26;48.13
31044;BME280;17710;52.520;13.352;2023-08-12T12:41:12;101216.44;;;30.48;47.48
31044;BME280;17710;52.520;13.352;2023-08-12T12:43:39;101210.28;;;30.79;47.07